ΕΜΥ, Εθνική Μετεωρολογική Υπηρεσία - Δελτία Καιρού, Προγνώσεις

ΑΕΡΟΝΑΥΤΙΛΙΑ

GREEK AIRPORTS CODES

TAF LGKA 090700Z 0909/0918 VRB03KT 9999 FEW025 SCT080 PROB40 TEMPO 0910/0916 5000 TSRA FEW015CB SCT025 BKN070=

EUROPEAN AIRPORTS CODES

LFPO 091300Z 04011KT 360V080 CAVOK 30/11 Q1023=